sensor_id;sensor_type;location;lat;lon;timestamp;pressure;altitude;pressure_sealevel;temperature;humidity
61870;BME280;47810;42.264;23.826;2023-03-20T00:00:13;94183.91;;;4.84;62.34
61870;BME280;47810;42.264;23.826;2023-03-20T00:02:40;94182.56;;;4.74;62.63
61870;BME280;47810;42.264;23.826;2023-03-20T00:05:24;94182.56;;;4.74;62.89
61870;BME280;47810;42.264;23.826;2023-03-20T00:07:50;94186.09;;;4.73;62.26
61870;BME280;47810;42.264;23.826;2023-03-20T00:10:16;94189.75;;;4.69;63.03
61870;BME280;47810;42.264;23.826;2023-03-20T00:12:42;94184.41;;;4.72;63.18
61870;BME280;47810;42.264;23.826;2023-03-20T00:17:52;94177.78;;;4.62;63.20
61870;BME280;47810;42.264;23.826;2023-03-20T00:20:18;94181.03;;;4.92;62.37
61870;BME280;47810;42.264;23.826;2023-03-20T00:22:43;94179.94;;;4.74;63.05
61870;BME280;47810;42.264;23.826;2023-03-20T00:25:13;94171.97;;;4.77;62.92
61870;BME280;47810;42.264;23.826;2023-03-20T00:27:40;94179.72;;;4.57;63.43
61870;BME280;47810;42.264;23.826;2023-03-20T00:32:40;94164.91;;;4.57;63.89
61870;BME280;47810;42.264;23.826;2023-03-20T00:35:39;94173.91;;;4.49;63.89
61870;BME280;47810;42.264;23.826;2023-03-20T00:37:57;94169.38;;;4.30;64.22
61870;BME280;47810;42.264;23.826;2023-03-20T00:40:28;94172.00;;;4.30;64.71
61870;BME280;47810;42.264;23.826;2023-03-20T00:43:12;94170.13;;;4.34;64.40
61870;BME280;47810;42.264;23.826;2023-03-20T00:45:40;94169.72;;;4.21;64.47
61870;BME280;47810;42.264;23.826;2023-03-20T00:48:07;94169.13;;;4.13;64.93
61870;BME280;47810;42.264;23.826;2023-03-20T00:50:36;94163.78;;;4.16;64.66
61870;BME280;47810;42.264;23.826;2023-03-20T00:53:02;94166.47;;;3.89;66.13
61870;BME280;47810;42.264;23.826;2023-03-20T00:55:27;94158.44;;;3.95;65.85
61870;BME280;47810;42.264;23.826;2023-03-20T00:57:54;94162.41;;;4.06;65.16
61870;BME280;47810;42.264;23.826;2023-03-20T01:02:46;94156.44;;;4.27;62.87
61870;BME280;47810;42.264;23.826;2023-03-20T01:05:12;94153.31;;;3.92;64.39
61870;BME280;47810;42.264;23.826;2023-03-20T01:07:38;94142.38;;;3.81;64.59
61870;BME280;47810;42.264;23.826;2023-03-20T01:10:05;94148.34;;;3.85;64.81
61870;BME280;47810;42.264;23.826;2023-03-20T01:12:31;94142.06;;;4.14;64.17
61870;BME280;47810;42.264;23.826;2023-03-20T01:14:56;94144.53;;;4.18;64.14
61870;BME280;47810;42.264;23.826;2023-03-20T01:17:23;94138.28;;;3.99;64.39
61870;BME280;47810;42.264;23.826;2023-03-20T01:19:49;94132.34;;;3.94;64.24
61870;BME280;47810;42.264;23.826;2023-03-20T01:22:15;94139.72;;;4.08;63.70
61870;BME280;47810;42.264;23.826;2023-03-20T01:24:42;94136.06;;;4.12;63.76
61870;BME280;47810;42.264;23.826;2023-03-20T01:27:11;94133.59;;;4.07;63.64
61870;BME280;47810;42.264;23.826;2023-03-20T01:29:37;94121.38;;;3.84;64.80
61870;BME280;47810;42.264;23.826;2023-03-20T01:32:04;94121.97;;;3.92;64.57
61870;BME280;47810;42.264;23.826;2023-03-20T01:34:34;94117.88;;;3.85;64.52
61870;BME280;47810;42.264;23.826;2023-03-20T01:37:00;94120.00;;;3.74;64.73
61870;BME280;47810;42.264;23.826;2023-03-20T01:39:27;94115.41;;;3.81;64.59
61870;BME280;47810;42.264;23.826;2023-03-20T01:41:55;94117.72;;;3.88;64.56
61870;BME280;47810;42.264;23.826;2023-03-20T01:44:27;94115.28;;;4.09;63.70
61870;BME280;47810;42.264;23.826;2023-03-20T01:46:53;94119.66;;;4.08;63.54
61870;BME280;47810;42.264;23.826;2023-03-20T01:51:49;94107.44;;;3.85;64.03
61870;BME280;47810;42.264;23.826;2023-03-20T01:54:20;94107.88;;;3.71;64.76
61870;BME280;47810;42.264;23.826;2023-03-20T01:56:48;94108.34;;;3.33;66.12
61870;BME280;47810;42.264;23.826;2023-03-20T01:59:17;94108.47;;;3.55;65.52
61870;BME280;47810;42.264;23.826;2023-03-20T02:01:45;94112.22;;;3.47;65.71
61870;BME280;47810;42.264;23.826;2023-03-20T02:04:11;94115.78;;;3.45;65.67
61870;BME280;47810;42.264;23.826;2023-03-20T02:06:38;94112.00;;;3.54;65.58
61870;BME280;47810;42.264;23.826;2023-03-20T02:09:04;94106.81;;;3.52;65.72
61870;BME280;47810;42.264;23.826;2023-03-20T02:11:30;94109.09;;;3.36;66.06
61870;BME280;47810;42.264;23.826;2023-03-20T02:13:57;94109.31;;;3.30;66.64
61870;BME280;47810;42.264;23.826;2023-03-20T02:16:23;94111.88;;;3.32;66.84
61870;BME280;47810;42.264;23.826;2023-03-20T02:18:50;94113.63;;;3.31;66.75
61870;BME280;47810;42.264;23.826;2023-03-20T02:42:44;94098.44;;;3.42;63.06
61870;BME280;47810;42.264;23.826;2023-03-20T02:45:16;94100.16;;;3.43;61.37
61870;BME280;47810;42.264;23.826;2023-03-20T02:47:49;94099.69;;;3.32;61.83
61870;BME280;47810;42.264;23.826;2023-03-20T02:52:54;94097.28;;;3.51;59.52
61870;BME280;47810;42.264;23.826;2023-03-20T02:55:37;94092.00;;;3.53;60.07
61870;BME280;47810;42.264;23.826;2023-03-20T03:00:34;94089.38;;;3.54;61.28
61870;BME280;47810;42.264;23.826;2023-03-20T03:05:40;94099.25;;;3.44;61.90
61870;BME280;47810;42.264;23.826;2023-03-20T03:08:40;94097.91;;;3.33;63.87
61870;BME280;47810;42.264;23.826;2023-03-20T03:11:07;94094.38;;;3.34;64.49
61870;BME280;47810;42.264;23.826;2023-03-20T03:13:37;94094.66;;;3.26;63.26
61870;BME280;47810;42.264;23.826;2023-03-20T03:16:46;94103.81;;;3.13;64.50
61870;BME280;47810;42.264;23.826;2023-03-20T03:19:04;94093.38;;;3.13;64.87
61870;BME280;47810;42.264;23.826;2023-03-20T03:21:32;94088.00;;;3.42;63.20
61870;BME280;47810;42.264;23.826;2023-03-20T03:23:59;94086.78;;;3.28;63.60
61870;BME280;47810;42.264;23.826;2023-03-20T03:26:29;94081.81;;;3.20;64.10
61870;BME280;47810;42.264;23.826;2023-03-20T03:28:59;94083.75;;;3.15;63.80
61870;BME280;47810;42.264;23.826;2023-03-20T03:31:26;94082.09;;;3.12;64.15
61870;BME280;47810;42.264;23.826;2023-03-20T03:33:54;94080.53;;;3.07;63.51
61870;BME280;47810;42.264;23.826;2023-03-20T03:44:19;94083.91;;;2.82;64.26
61870;BME280;47810;42.264;23.826;2023-03-20T03:49:03;94080.72;;;3.00;63.76
61870;BME280;47810;42.264;23.826;2023-03-20T03:51:31;94076.81;;;3.14;63.05
61870;BME280;47810;42.264;23.826;2023-03-20T03:54:09;94085.03;;;3.01;63.55
61870;BME280;47810;42.264;23.826;2023-03-20T03:56:36;94075.53;;;2.72;64.11
61870;BME280;47810;42.264;23.826;2023-03-20T03:59:10;94073.22;;;2.63;64.54
61870;BME280;47810;42.264;23.826;2023-03-20T04:01:37;94074.78;;;2.69;66.09
61870;BME280;47810;42.264;23.826;2023-03-20T04:04:08;94070.88;;;2.82;65.15
61870;BME280;47810;42.264;23.826;2023-03-20T04:06:35;94075.00;;;2.89;64.04
61870;BME280;47810;42.264;23.826;2023-03-20T04:09:01;94069.28;;;2.78;65.81
61870;BME280;47810;42.264;23.826;2023-03-20T04:11:26;94067.59;;;2.77;65.36
61870;BME280;47810;42.264;23.826;2023-03-20T04:13:55;94068.44;;;2.77;65.67
61870;BME280;47810;42.264;23.826;2023-03-20T04:16:21;94061.31;;;2.83;64.87
61870;BME280;47810;42.264;23.826;2023-03-20T04:18:47;94051.91;;;2.50;65.34
61870;BME280;47810;42.264;23.826;2023-03-20T04:21:13;94064.75;;;2.28;65.85
61870;BME280;47810;42.264;23.826;2023-03-20T04:23:41;94062.72;;;2.38;66.73
61870;BME280;47810;42.264;23.826;2023-03-20T04:26:06;94058.59;;;2.59;66.21
61870;BME280;47810;42.264;23.826;2023-03-20T04:28:32;94063.69;;;2.62;66.23
61870;BME280;47810;42.264;23.826;2023-03-20T04:30:58;94062.84;;;2.62;66.15
61870;BME280;47810;42.264;23.826;2023-03-20T04:33:25;94064.72;;;2.85;64.48
61870;BME280;47810;42.264;23.826;2023-03-20T04:35:50;94071.94;;;2.76;64.46
61870;BME280;47810;42.264;23.826;2023-03-20T04:38:16;94069.38;;;2.75;64.95
61870;BME280;47810;42.264;23.826;2023-03-20T04:40:42;94073.38;;;2.59;66.31
61870;BME280;47810;42.264;23.826;2023-03-20T04:43:08;94076.50;;;2.70;65.80
61870;BME280;47810;42.264;23.826;2023-03-20T04:45:34;94074.69;;;2.72;65.61
61870;BME280;47810;42.264;23.826;2023-03-20T04:47:59;94071.94;;;2.76;66.56
61870;BME280;47810;42.264;23.826;2023-03-20T04:50:25;94081.13;;;2.88;65.71
61870;BME280;47810;42.264;23.826;2023-03-20T04:52:50;94080.66;;;2.75;65.65
61870;BME280;47810;42.264;23.826;2023-03-20T04:55:16;94084.91;;;2.78;66.31
61870;BME280;47810;42.264;23.826;2023-03-20T04:57:41;94085.56;;;2.85;65.83
61870;BME280;47810;42.264;23.826;2023-03-20T05:00:07;94086.53;;;2.82;66.71
61870;BME280;47810;42.264;23.826;2023-03-20T05:02:33;94082.13;;;2.84;67.40
61870;BME280;47810;42.264;23.826;2023-03-20T05:04:58;94091.63;;;2.85;67.64
61870;BME280;47810;42.264;23.826;2023-03-20T05:07:24;94075.91;;;2.88;67.83
61870;BME280;47810;42.264;23.826;2023-03-20T05:09:49;94077.31;;;2.98;67.46
61870;BME280;47810;42.264;23.826;2023-03-20T05:12:15;94067.53;;;3.05;67.31
61870;BME280;47810;42.264;23.826;2023-03-20T05:14:44;94074.09;;;3.17;66.63
61870;BME280;47810;42.264;23.826;2023-03-20T05:17:09;94069.72;;;3.17;66.58
61870;BME280;47810;42.264;23.826;2023-03-20T05:19:35;94071.34;;;3.21;66.76
61870;BME280;47810;42.264;23.826;2023-03-20T05:22:03;94069.69;;;3.19;67.68
61870;BME280;47810;42.264;23.826;2023-03-20T05:24:29;94071.28;;;3.23;66.98
61870;BME280;47810;42.264;23.826;2023-03-20T05:26:55;94071.91;;;3.30;67.27
61870;BME280;47810;42.264;23.826;2023-03-20T05:29:21;94076.41;;;3.26;67.58
61870;BME280;47810;42.264;23.826;2023-03-20T05:31:47;94081.31;;;3.35;67.28
61870;BME280;47810;42.264;23.826;2023-03-20T05:34:12;94076.94;;;3.36;67.19
61870;BME280;47810;42.264;23.826;2023-03-20T05:36:38;94074.19;;;3.40;68.20
61870;BME280;47810;42.264;23.826;2023-03-20T05:39:03;94070.03;;;3.60;67.40
61870;BME280;47810;42.264;23.826;2023-03-20T05:41:29;94067.41;;;3.60;67.23
61870;BME280;47810;42.264;23.826;2023-03-20T05:43:54;94074.56;;;3.78;66.38
61870;BME280;47810;42.264;23.826;2023-03-20T05:46:20;94077.50;;;3.69;66.95
61870;BME280;47810;42.264;23.826;2023-03-20T05:48:46;94076.50;;;3.73;67.29
61870;BME280;47810;42.264;23.826;2023-03-20T05:51:15;94079.13;;;3.73;68.12
61870;BME280;47810;42.264;23.826;2023-03-20T05:53:40;94085.03;;;3.78;68.49
61870;BME280;47810;42.264;23.826;2023-03-20T05:56:06;94081.53;;;3.79;68.31
61870;BME280;47810;42.264;23.826;2023-03-20T05:58:32;94079.38;;;3.90;67.59
61870;BME280;47810;42.264;23.826;2023-03-20T06:00:57;94073.91;;;3.96;68.51
61870;BME280;47810;42.264;23.826;2023-03-20T06:03:24;94078.81;;;4.06;68.88
61870;BME280;47810;42.264;23.826;2023-03-20T06:05:49;94078.69;;;4.09;68.28
61870;BME280;47810;42.264;23.826;2023-03-20T06:08:15;94076.75;;;4.14;66.95
61870;BME280;47810;42.264;23.826;2023-03-20T06:10:41;94077.91;;;4.30;66.36
61870;BME280;47810;42.264;23.826;2023-03-20T06:13:06;94086.41;;;4.35;65.53
61870;BME280;47810;42.264;23.826;2023-03-20T06:15:32;94089.84;;;4.37;65.65
61870;BME280;47810;42.264;23.826;2023-03-20T06:17:57;94084.19;;;4.48;65.72
61870;BME280;47810;42.264;23.826;2023-03-20T06:20:23;94084.44;;;4.64;66.51
61870;BME280;47810;42.264;23.826;2023-03-20T06:22:49;94084.44;;;4.64;66.12
61870;BME280;47810;42.264;23.826;2023-03-20T06:25:17;94085.91;;;4.71;65.69
61870;BME280;47810;42.264;23.826;2023-03-20T06:27:44;94086.16;;;4.87;64.25
61870;BME280;47810;42.264;23.826;2023-03-20T06:30:10;94086.97;;;4.89;64.27
61870;BME280;47810;42.264;23.826;2023-03-20T06:32:37;94082.72;;;5.07;63.85
61870;BME280;47810;42.264;23.826;2023-03-20T06:35:02;94085.09;;;5.13;63.91
61870;BME280;47810;42.264;23.826;2023-03-20T06:37:30;94078.59;;;5.23;63.12
61870;BME280;47810;42.264;23.826;2023-03-20T06:39:55;94080.31;;;5.45;62.50
61870;BME280;47810;42.264;23.826;2023-03-20T06:42:21;94078.34;;;5.50;63.37
61870;BME280;47810;42.264;23.826;2023-03-20T06:44:47;94084.09;;;5.58;63.35
61870;BME280;47810;42.264;23.826;2023-03-20T06:47:12;94082.03;;;5.66;62.10
61870;BME280;47810;42.264;23.826;2023-03-20T06:49:38;94076.72;;;5.88;60.22
61870;BME280;47810;42.264;23.826;2023-03-20T06:52:04;94072.13;;;6.14;58.29
61870;BME280;47810;42.264;23.826;2023-03-20T06:54:30;94071.63;;;6.24;57.27
61870;BME280;47810;42.264;23.826;2023-03-20T06:57:07;94069.53;;;6.33;57.80
61870;BME280;47810;42.264;23.826;2023-03-20T06:59:33;94071.28;;;6.32;58.10
61870;BME280;47810;42.264;23.826;2023-03-20T07:01:58;94076.88;;;6.43;57.00
61870;BME280;47810;42.264;23.826;2023-03-20T07:04:24;94069.03;;;6.62;56.66
61870;BME280;47810;42.264;23.826;2023-03-20T07:06:53;94069.91;;;6.80;56.91
61870;BME280;47810;42.264;23.826;2023-03-20T07:09:19;94064.94;;;6.93;56.80
61870;BME280;47810;42.264;23.826;2023-03-20T07:11:46;94066.47;;;7.16;55.45
61870;BME280;47810;42.264;23.826;2023-03-20T07:14:12;94073.38;;;7.36;54.82
61870;BME280;47810;42.264;23.826;2023-03-20T07:16:37;94065.03;;;7.45;54.66
61870;BME280;47810;42.264;23.826;2023-03-20T07:19:03;94071.38;;;7.58;54.42
61870;BME280;47810;42.264;23.826;2023-03-20T07:21:28;94075.06;;;7.72;53.19
61870;BME280;47810;42.264;23.826;2023-03-20T07:23:54;94071.78;;;8.01;54.66
61870;BME280;47810;42.264;23.826;2023-03-20T07:26:19;94069.03;;;8.53;53.75
61870;BME280;47810;42.264;23.826;2023-03-20T07:28:45;94069.66;;;8.58;53.90
61870;BME280;47810;42.264;23.826;2023-03-20T07:31:24;94070.34;;;8.78;54.09
61870;BME280;47810;42.264;23.826;2023-03-20T07:33:50;94064.47;;;9.04;54.38
61870;BME280;47810;42.264;23.826;2023-03-20T07:36:16;94067.78;;;9.70;52.84
61870;BME280;47810;42.264;23.826;2023-03-20T07:38:41;94059.22;;;9.80;53.57
61870;BME280;47810;42.264;23.826;2023-03-20T07:41:07;94054.38;;;10.03;53.93
61870;BME280;47810;42.264;23.826;2023-03-20T07:43:33;94054.00;;;10.09;52.56
61870;BME280;47810;42.264;23.826;2023-03-20T07:46:02;94056.59;;;10.39;52.31
61870;BME280;47810;42.264;23.826;2023-03-20T07:48:27;94060.34;;;10.64;52.39
61870;BME280;47810;42.264;23.826;2023-03-20T07:50:53;94047.75;;;10.96;49.19
61870;BME280;47810;42.264;23.826;2023-03-20T07:53:18;94055.38;;;11.15;50.13
61870;BME280;47810;42.264;23.826;2023-03-20T07:55:44;94055.34;;;11.42;49.46
61870;BME280;47810;42.264;23.826;2023-03-20T07:58:09;94060.44;;;11.72;49.28
61870;BME280;47810;42.264;23.826;2023-03-20T08:00:36;94050.56;;;12.01;46.55
61870;BME280;47810;42.264;23.826;2023-03-20T08:03:02;94052.59;;;12.36;46.55
61870;BME280;47810;42.264;23.826;2023-03-20T08:05:27;94045.69;;;12.59;47.10
61870;BME280;47810;42.264;23.826;2023-03-20T08:07:53;94050.75;;;12.88;45.98
61870;BME280;47810;42.264;23.826;2023-03-20T08:10:18;94055.03;;;13.14;44.89
61870;BME280;47810;42.264;23.826;2023-03-20T08:12:44;94040.47;;;13.33;41.20
61870;BME280;47810;42.264;23.826;2023-03-20T08:15:09;94052.66;;;13.59;43.24
61870;BME280;47810;42.264;23.826;2023-03-20T08:17:35;94043.34;;;13.89;39.88
61870;BME280;47810;42.264;23.826;2023-03-20T08:20:01;94049.47;;;14.25;40.13
61870;BME280;47810;42.264;23.826;2023-03-20T08:22:26;94045.78;;;14.38;39.07
61870;BME280;47810;42.264;23.826;2023-03-20T08:24:52;94046.69;;;14.84;37.46
61870;BME280;47810;42.264;23.826;2023-03-20T08:27:17;94043.31;;;14.93;38.05
61870;BME280;47810;42.264;23.826;2023-03-20T08:29:43;94037.22;;;15.13;35.52
61870;BME280;47810;42.264;23.826;2023-03-20T08:32:08;94042.94;;;14.98;37.80
61870;BME280;47810;42.264;23.826;2023-03-20T08:34:34;94047.50;;;15.18;36.72
61870;BME280;47810;42.264;23.826;2023-03-20T08:37:01;94043.94;;;15.40;36.23
61870;BME280;47810;42.264;23.826;2023-03-20T08:39:27;94039.16;;;15.66;37.39
61870;BME280;47810;42.264;23.826;2023-03-20T08:41:52;94039.28;;;15.76;37.01
61870;BME280;47810;42.264;23.826;2023-03-20T08:44:18;94033.06;;;16.07;33.63
61870;BME280;47810;42.264;23.826;2023-03-20T08:46:43;94036.59;;;16.29;36.48
61870;BME280;47810;42.264;23.826;2023-03-20T08:49:10;94031.91;;;16.42;33.88
61870;BME280;47810;42.264;23.826;2023-03-20T08:51:36;94033.06;;;16.49;35.36
61870;BME280;47810;42.264;23.826;2023-03-20T08:54:01;94031.72;;;16.76;33.87
61870;BME280;47810;42.264;23.826;2023-03-20T08:56:27;94026.75;;;16.92;35.34
61870;BME280;47810;42.264;23.826;2023-03-20T08:58:54;94027.78;;;17.11;35.49
61870;BME280;47810;42.264;23.826;2023-03-20T09:01:20;94028.22;;;17.16;33.50
61870;BME280;47810;42.264;23.826;2023-03-20T09:03:46;94022.38;;;17.41;33.26
61870;BME280;47810;42.264;23.826;2023-03-20T09:06:11;94027.00;;;17.39;34.38
61870;BME280;47810;42.264;23.826;2023-03-20T09:08:37;94021.94;;;17.36;33.85
61870;BME280;47810;42.264;23.826;2023-03-20T09:11:03;94023.38;;;17.40;32.21
61870;BME280;47810;42.264;23.826;2023-03-20T09:13:29;94013.41;;;17.62;32.72
61870;BME280;47810;42.264;23.826;2023-03-20T09:15:55;94013.69;;;17.59;30.75
61870;BME280;47810;42.264;23.826;2023-03-20T09:18:20;94009.63;;;17.74;33.57
61870;BME280;47810;42.264;23.826;2023-03-20T09:20:46;94010.38;;;18.15;32.61
61870;BME280;47810;42.264;23.826;2023-03-20T09:23:12;93999.84;;;18.70;31.68
61870;BME280;47810;42.264;23.826;2023-03-20T09:25:38;94001.03;;;19.05;28.54
61870;BME280;47810;42.264;23.826;2023-03-20T09:28:04;93995.38;;;19.08;28.28
61870;BME280;47810;42.264;23.826;2023-03-20T09:30:30;93993.69;;;19.35;28.57
61870;BME280;47810;42.264;23.826;2023-03-20T09:32:55;93986.72;;;19.42;29.83
61870;BME280;47810;42.264;23.826;2023-03-20T09:35:21;93975.72;;;19.45;30.54
61870;BME280;47810;42.264;23.826;2023-03-20T09:37:46;93984.50;;;19.83;29.74
61870;BME280;47810;42.264;23.826;2023-03-20T09:40:23;93978.38;;;19.45;30.26
61870;BME280;47810;42.264;23.826;2023-03-20T09:47:53;93969.81;;;20.48;28.37
61870;BME280;47810;42.264;23.826;2023-03-20T09:55:51;93956.38;;;21.35;28.03
61870;BME280;47810;42.264;23.826;2023-03-20T09:58:26;93954.25;;;21.12;27.79
61870;BME280;47810;42.264;23.826;2023-03-20T10:00:55;93956.06;;;21.12;29.27
61870;BME280;47810;42.264;23.826;2023-03-20T10:03:27;93952.59;;;21.20;27.65
61870;BME280;47810;42.264;23.826;2023-03-20T10:06:00;93950.88;;;21.45;27.64
61870;BME280;47810;42.264;23.826;2023-03-20T10:08:35;93942.16;;;21.59;28.13
61870;BME280;47810;42.264;23.826;2023-03-20T10:13:34;93943.91;;;21.93;30.04
61870;BME280;47810;42.264;23.826;2023-03-20T10:19:20;93935.81;;;22.01;26.59
61870;BME280;47810;42.264;23.826;2023-03-20T10:24:04;93931.13;;;21.20;26.09
61870;BME280;47810;42.264;23.826;2023-03-20T10:26:32;93922.91;;;21.96;28.09
61870;BME280;47810;42.264;23.826;2023-03-20T10:29:04;93915.16;;;22.09;24.50
61870;BME280;47810;42.264;23.826;2023-03-20T10:39:16;93899.72;;;23.62;24.02
61870;BME280;47810;42.264;23.826;2023-03-20T10:41:46;93892.09;;;23.97;23.05
61870;BME280;47810;42.264;23.826;2023-03-20T10:44:15;93893.41;;;24.01;22.01
61870;BME280;47810;42.264;23.826;2023-03-20T10:46:44;93889.09;;;22.98;23.82
61870;BME280;47810;42.264;23.826;2023-03-20T10:51:48;93889.75;;;22.45;24.53
61870;BME280;47810;42.264;23.826;2023-03-20T10:54:38;93873.31;;;22.87;25.72
61870;BME280;47810;42.264;23.826;2023-03-20T10:57:02;93871.06;;;23.92;21.64
61870;BME280;47810;42.264;23.826;2023-03-20T11:02:11;93872.75;;;24.31;24.45
61870;BME280;47810;42.264;23.826;2023-03-20T11:04:36;93860.72;;;24.86;21.91
61870;BME280;47810;42.264;23.826;2023-03-20T11:07:08;93855.69;;;24.83;23.35
61870;BME280;47810;42.264;23.826;2023-03-20T11:09:36;93851.78;;;25.01;21.58
61870;BME280;47810;42.264;23.826;2023-03-20T11:12:03;93853.75;;;23.87;22.96
61870;BME280;47810;42.264;23.826;2023-03-20T11:14:36;93850.78;;;23.51;23.02
61870;BME280;47810;42.264;23.826;2023-03-20T11:17:03;93846.94;;;23.76;23.04
61870;BME280;47810;42.264;23.826;2023-03-20T11:19:37;93832.41;;;24.53;20.70
61870;BME280;47810;42.264;23.826;2023-03-20T11:22:07;93834.75;;;24.56;23.02
61870;BME280;47810;42.264;23.826;2023-03-20T11:24:34;93828.84;;;24.97;21.63
61870;BME280;47810;42.264;23.826;2023-03-20T11:27:05;93825.13;;;24.98;23.38
61870;BME280;47810;42.264;23.826;2023-03-20T11:29:31;93826.66;;;24.56;21.74
61870;BME280;47810;42.264;23.826;2023-03-20T11:32:06;93821.13;;;24.64;21.52
61870;BME280;47810;42.264;23.826;2023-03-20T11:34:35;93818.63;;;24.48;22.36
61870;BME280;47810;42.264;23.826;2023-03-20T11:37:05;93801.44;;;25.00;19.95
61870;BME280;47810;42.264;23.826;2023-03-20T11:39:31;93809.22;;;24.73;21.65
61870;BME280;47810;42.264;23.826;2023-03-20T11:41:57;93806.16;;;24.76;22.02
61870;BME280;47810;42.264;23.826;2023-03-20T11:44:27;93803.72;;;24.37;21.85
61870;BME280;47810;42.264;23.826;2023-03-20T11:46:53;93799.72;;;24.48;22.91
61870;BME280;47810;42.264;23.826;2023-03-20T11:49:21;93807.25;;;24.67;22.96
61870;BME280;47810;42.264;23.826;2023-03-20T11:51:49;93801.13;;;24.44;21.24
61870;BME280;47810;42.264;23.826;2023-03-20T11:54:16;93801.41;;;23.96;21.89
61870;BME280;47810;42.264;23.826;2023-03-20T11:56:58;93793.66;;;24.46;21.81
61870;BME280;47810;42.264;23.826;2023-03-20T11:59:25;93796.53;;;25.40;22.19
61870;BME280;47810;42.264;23.826;2023-03-20T12:01:53;93796.72;;;26.02;20.91
61870;BME280;47810;42.264;23.826;2023-03-20T12:06:52;93792.06;;;26.46;20.54
61870;BME280;47810;42.264;23.826;2023-03-20T12:11:59;93785.94;;;26.65;18.99
61870;BME280;47810;42.264;23.826;2023-03-20T12:17:24;93781.47;;;26.51;21.11
61870;BME280;47810;42.264;23.826;2023-03-20T12:19:45;93782.03;;;26.75;19.45
61870;BME280;47810;42.264;23.826;2023-03-20T12:24:42;93773.59;;;26.00;19.11
61870;BME280;47810;42.264;23.826;2023-03-20T12:27:21;93770.53;;;26.10;18.89
61870;BME280;47810;42.264;23.826;2023-03-20T12:37:07;93756.31;;;26.57;18.45
61870;BME280;47810;42.264;23.826;2023-03-20T12:39:34;93755.81;;;26.47;17.10
61870;BME280;47810;42.264;23.826;2023-03-20T12:44:52;93755.34;;;25.81;18.43
61870;BME280;47810;42.264;23.826;2023-03-20T12:55:26;93744.91;;;25.56;21.69
61870;BME280;47810;42.264;23.826;2023-03-20T13:00:37;93747.28;;;26.15;21.76
61870;BME280;47810;42.264;23.826;2023-03-20T13:10:48;93742.97;;;26.56;20.99
61870;BME280;47810;42.264;23.826;2023-03-20T13:18:36;93727.53;;;26.21;21.79
61870;BME280;47810;42.264;23.826;2023-03-20T13:21:26;93718.63;;;26.28;20.84
61870;BME280;47810;42.264;23.826;2023-03-20T13:26:44;93713.31;;;26.13;21.29
61870;BME280;47810;42.264;23.826;2023-03-20T13:31:42;93723.63;;;25.74;22.61
61870;BME280;47810;42.264;23.826;2023-03-20T13:34:19;93716.81;;;25.78;23.34
61870;BME280;47810;42.264;23.826;2023-03-20T13:40:13;93709.78;;;25.35;23.35
61870;BME280;47810;42.264;23.826;2023-03-20T13:42:20;93707.94;;;24.99;23.58
61870;BME280;47810;42.264;23.826;2023-03-20T13:44:46;93698.28;;;24.53;24.62
61870;BME280;47810;42.264;23.826;2023-03-20T13:47:21;93697.16;;;24.62;24.70
61870;BME280;47810;42.264;23.826;2023-03-20T13:52:23;93691.81;;;24.69;24.45
61870;BME280;47810;42.264;23.826;2023-03-20T14:02:27;93686.91;;;24.28;26.26
61870;BME280;47810;42.264;23.826;2023-03-20T14:05:00;93679.09;;;24.04;25.23
61870;BME280;47810;42.264;23.826;2023-03-20T14:07:35;93680.41;;;23.78;26.24
61870;BME280;47810;42.264;23.826;2023-03-20T14:10:44;93682.41;;;23.61;25.92
61870;BME280;47810;42.264;23.826;2023-03-20T14:13:00;93689.34;;;23.56;26.12
61870;BME280;47810;42.264;23.826;2023-03-20T14:15:27;93676.59;;;23.87;26.87
61870;BME280;47810;42.264;23.826;2023-03-20T14:17:55;93679.09;;;23.74;26.19
61870;BME280;47810;42.264;23.826;2023-03-20T14:20:35;93674.88;;;23.57;26.25
61870;BME280;47810;42.264;23.826;2023-03-20T14:23:01;93682.75;;;23.58;26.99
61870;BME280;47810;42.264;23.826;2023-03-20T14:25:32;93682.97;;;23.19;26.78
61870;BME280;47810;42.264;23.826;2023-03-20T14:27:59;93683.88;;;22.80;27.96
61870;BME280;47810;42.264;23.826;2023-03-20T14:36:25;93683.34;;;22.53;29.56
61870;BME280;47810;42.264;23.826;2023-03-20T14:38:28;93683.88;;;22.18;29.36
61870;BME280;47810;42.264;23.826;2023-03-20T14:49:23;93675.25;;;21.83;30.76
61870;BME280;47810;42.264;23.826;2023-03-20T14:51:51;93670.72;;;21.75;31.30
61870;BME280;47810;42.264;23.826;2023-03-20T14:56:47;93669.63;;;21.37;31.54
61870;BME280;47810;42.264;23.826;2023-03-20T14:59:15;93668.25;;;21.25;31.85
61870;BME280;47810;42.264;23.826;2023-03-20T15:01:43;93658.91;;;21.04;32.17
61870;BME280;47810;42.264;23.826;2023-03-20T15:04:21;93657.56;;;20.84;32.52
61870;BME280;47810;42.264;23.826;2023-03-20T15:06:51;93656.53;;;20.77;32.66
61870;BME280;47810;42.264;23.826;2023-03-20T15:09:18;93657.81;;;20.40;33.46
61870;BME280;47810;42.264;23.826;2023-03-20T15:11:45;93660.44;;;20.23;33.83
61870;BME280;47810;42.264;23.826;2023-03-20T15:14:12;93661.50;;;19.88;34.77
61870;BME280;47810;42.264;23.826;2023-03-20T15:16:43;93660.28;;;19.74;34.17
61870;BME280;47810;42.264;23.826;2023-03-20T15:19:18;93676.16;;;19.50;34.85
61870;BME280;47810;42.264;23.826;2023-03-20T15:21:44;93670.97;;;19.22;35.43
61870;BME280;47810;42.264;23.826;2023-03-20T15:24:19;93674.38;;;19.06;35.69
61870;BME280;47810;42.264;23.826;2023-03-20T15:26:46;93680.88;;;19.04;35.82
61870;BME280;47810;42.264;23.826;2023-03-20T15:29:15;93682.03;;;19.01;35.36
61870;BME280;47810;42.264;23.826;2023-03-20T15:31:42;93688.53;;;18.81;35.99
61870;BME280;47810;42.264;23.826;2023-03-20T15:34:11;93696.19;;;18.76;35.84
61870;BME280;47810;42.264;23.826;2023-03-20T15:36:41;93695.47;;;18.56;35.97
61870;BME280;47810;42.264;23.826;2023-03-20T15:41:34;93703.53;;;18.28;37.41